map of DMU home
DMU - Airport
Location
City:  Dimapur, Nagaland, India
ICAO:VEMR
IATA:DMU

Details
Type:Airport (Aerodrome, Airfield)
Latitude:25°53'02"N (25.883906)
Longitude:93°46'16"E (93.771144)
Datum:WGS 1984
Elevation:487 ft (148 m)
Variation:0.33°W (WMM2015 magnetic declination)
0.03° annual change
Runways:1
Longest:7513 × 148 ft (2290 × 45 m), paved

Time
Time Zone:UTC+5:30
Local Time:

Weather
METAR:VEMR 160630Z 00000KT 3500 HZ FEW020 SCT100 23/14 Q1019

Related Locations
Nearby:
Farthest:SCFX: 12064 mi / 19416 km
Isla San Félix, Desventuradas Islands, VS, CL

Find:

   beyond  
but within

Other Information
Maps:
NOTAMs:
Links:
Sources:

  
  • flag of India
  

Sectional Chart

Flight Planning
at skyvector.com

Satellite Image

Google Maps Satellite view

 

Copyright © 2004-2018 Karl L. Swartz. All rights reserved.
The Great Circle Mapper name and logo are trademarks of the Great Circle Mapper.
All other trademarks mentioned herein belong to their respective owners.
Please see credits for attibutions and further copyright information.

  Follow gcmap on Facebook Follow gcmap on Twitter Follow gcmap on Google+ GCmap on LinkedIn

hCard Microformat

Geo Microformat